Time;durP1;ratioP1;P1;durP2;ratioP2;P2;SDS_P1;SDS_P2;PMS_P1;PMS_P2;Temp;Humidity;BMP_temperature;BMP_pressure;BME280_temperature;BME280_humidity;BME280_pressure;Samples;Min_cycle;Max_cycle;Signal;HPM_P1;HPM_P2
2024/01/03 00:02:17;;;;;;;6.80;0.50;;;;;;;;;;5116865;27;20044;-78
2024/01/03 00:04:43;;;;;;;4.13;0.40;;;;;;;;;;5135616;27;20050;-79
2024/01/03 00:07:10;;;;;;;9.43;0.68;;;;;;;;;;5135652;27;20057;-79
2024/01/03 00:09:36;;;;;;;8.55;0.40;;;;;;;;;;5135338;27;20047;-79
2024/01/03 00:12:03;;;;;;;7.45;0.73;;;;;;;;;;5117181;27;20051;-79
2024/01/03 00:14:32;;;;;;;8.18;0.63;;;;;;;;;;5117095;27;20459;-78
2024/01/03 00:17:00;;;;;;;8.57;0.60;;;;;;;;;;5116492;27;20494;-78
2024/01/03 00:19:26;;;;;;;6.57;0.70;;;;;;;;;;5135183;27;20368;-78
2024/01/03 00:21:52;;;;;;;7.13;0.40;;;;;;;;;;5135671;27;20395;-77
2024/01/03 00:24:19;;;;;;;4.28;0.30;;;;;;;;;;5135166;27;20043;-78
2024/01/03 00:26:46;;;;;;;6.03;0.30;;;;;;;;;;5135048;27;20054;-78
2024/01/03 00:29:24;;;;;;;4.10;0.20;;;;;;;;;;5116179;27;20039;-78
2024/01/03 00:31:51;;;;;;;1.63;0.13;;;;;;;;;;5116877;27;20046;-78
2024/01/03 00:34:23;;;;;;;1.85;0.20;;;;;;;;;;5135163;27;20124;-79
2024/01/03 00:36:53;;;;;;;3.97;0.20;;;;;;;;;;5116103;27;20483;-79
2024/01/03 00:39:32;;;;;;;5.13;0.20;;;;;;;;;;5134287;27;20047;-79
2024/01/03 00:41:58;;;;;;;3.17;0.20;;;;;;;;;;5111879;28;20083;-78
2024/01/03 00:44:25;;;;;;;4.57;0.60;;;;;;;;;;5114278;28;20051;-78
2024/01/03 00:46:51;;;;;;;3.72;0.20;;;;;;;;;;5113890;28;20045;-79
2024/01/03 00:49:18;;;;;;;5.38;0.40;;;;;;;;;;5113372;28;20479;-79
2024/01/03 00:51:47;;;;;;;3.58;0.50;;;;;;;;;;5114315;28;20042;-79
2024/01/03 00:54:13;;;;;;;14.30;0.52;;;;;;;;;;5113631;28;20048;-79
2024/01/03 00:56:39;;;;;;;4.68;0.20;;;;;;;;;;5114112;28;20092;-78
2024/01/03 00:59:05;;;;;;;5.45;0.50;;;;;;;;;;5114189;28;20433;-79
2024/01/03 01:01:31;;;;;;;8.80;0.60;;;;;;;;;;5113249;28;20403;-78
2024/01/03 01:03:57;;;;;;;6.18;0.80;;;;;;;;;;5113123;28;20047;-79
2024/01/03 01:06:23;;;;;;;7.35;0.70;;;;;;;;;;5114003;28;20052;-79
2024/01/03 01:08:50;;;;;;;13.00;0.80;;;;;;;;;;5113499;28;20052;-78
2024/01/03 01:11:16;;;;;;;7.35;0.52;;;;;;;;;;5113031;28;20054;-78
2024/01/03 01:13:42;;;;;;;7.47;0.60;;;;;;;;;;5113966;28;20046;-79
2024/01/03 01:16:08;;;;;;;8.80;0.70;;;;;;;;;;5113180;28;20506;-79
2024/01/03 01:18:34;;;;;;;9.77;0.70;;;;;;;;;;5113934;28;20562;-78
2024/01/03 01:21:00;;;;;;;6.60;0.40;;;;;;;;;;5113970;28;20601;-79
2024/01/03 01:23:26;;;;;;;6.82;0.30;;;;;;;;;;5112354;28;20512;-79
2024/01/03 01:25:52;;;;;;;8.43;0.68;;;;;;;;;;5113957;28;20532;-78
2024/01/03 01:28:18;;;;;;;9.32;0.50;;;;;;;;;;5114440;28;20434;-79
2024/01/03 01:30:44;;;;;;;6.68;0.68;;;;;;;;;;5113826;28;20047;-78
2024/01/03 01:33:10;;;;;;;5.90;0.50;;;;;;;;;;5113864;28;20048;-79
2024/01/03 01:35:36;;;;;;;6.88;0.85;;;;;;;;;;5112501;28;20040;-79
2024/01/03 01:38:06;;;;;;;2.95;0.30;;;;;;;;;;5113713;28;20052;-79
2024/01/03 01:40:32;;;;;;;5.40;0.38;;;;;;;;;;5113619;28;20122;-79
2024/01/03 01:42:58;;;;;;;4.75;0.50;;;;;;;;;;5116329;28;20052;-79
2024/01/03 01:45:24;;;;;;;5.93;0.38;;;;;;;;;;5117200;28;20060;-79
2024/01/03 01:47:50;;;;;;;5.47;0.30;;;;;;;;;;5116565;28;20123;-79
2024/01/03 01:50:17;;;;;;;3.13;0.50;;;;;;;;;;5117479;28;20052;-78
2024/01/03 01:52:43;;;;;;;4.43;0.30;;;;;;;;;;5117476;28;20180;-78
2024/01/03 01:55:10;;;;;;;3.25;0.30;;;;;;;;;;5116569;28;20060;-78
2024/01/03 01:57:37;;;;;;;2.42;0.13;;;;;;;;;;5116572;28;20490;-79
2024/01/03 02:00:04;;;;;;;6.40;0.47;;;;;;;;;;5117635;28;20051;-78
2024/01/03 02:02:30;;;;;;;5.47;0.30;;;;;;;;;;5117153;28;20035;-78
2024/01/03 02:04:58;;;;;;;7.20;0.32;;;;;;;;;;5117239;28;20048;-79
2024/01/03 02:07:25;;;;;;;1.55;0.10;;;;;;;;;;5116396;28;20044;-79
2024/01/03 02:09:52;;;;;;;3.53;0.30;;;;;;;;;;5116158;28;20039;-79
2024/01/03 02:12:25;;;;;;;3.63;0.25;;;;;;;;;;5117120;28;20044;-78
2024/01/03 02:14:51;;;;;;;7.05;0.40;;;;;;;;;;5117016;28;20047;-78
2024/01/03 02:17:18;;;;;;;5.03;0.40;;;;;;;;;;5116517;28;20044;-78
2024/01/03 02:19:44;;;;;;;3.38;0.30;;;;;;;;;;5115809;28;20082;-79
2024/01/03 02:22:10;;;;;;;5.90;0.50;;;;;;;;;;5098880;28;20086;-79
2024/01/03 02:24:36;;;;;;;3.97;0.30;;;;;;;;;;5116813;28;20096;-79
2024/01/03 02:27:02;;;;;;;2.90;0.20;;;;;;;;;;5115644;28;20089;-78
2024/01/03 02:29:28;;;;;;;1.98;0.30;;;;;;;;;;5116768;28;20040;-78
2024/01/03 02:31:54;;;;;;;5.03;0.30;;;;;;;;;;5116702;28;20048;-77
2024/01/03 02:34:20;;;;;;;3.92;0.30;;;;;;;;;;5116642;28;20135;-77
2024/01/03 02:36:51;;;;;;;5.75;0.22;;;;;;;;;;5115622;28;20047;-77
2024/01/03 02:39:17;;;;;;;4.75;0.38;;;;;;;;;;5116640;28;20054;-77
2024/01/03 02:41:43;;;;;;;9.38;0.65;;;;;;;;;;5122195;27;20051;-77
2024/01/03 02:44:09;;;;;;;6.22;0.65;;;;;;;;;;5137002;27;20058;-77
2024/01/03 02:46:36;;;;;;;5.60;0.60;;;;;;;;;;5136579;27;20043;-77
2024/01/03 02:49:02;;;;;;;5.60;0.60;;;;;;;;;;5118829;27;20046;-77
2024/01/03 02:51:28;;;;;;;11.18;0.60;;;;;;;;;;5136444;27;20054;-77
2024/01/03 02:53:54;;;;;;;9.50;0.50;;;;;;;;;;5136866;27;20043;-77
2024/01/03 02:56:20;;;;;;;9.77;0.80;;;;;;;;;;5136737;27;20130;-78
2024/01/03 02:58:46;;;;;;;8.45;0.63;;;;;;;;;;5137047;27;20386;-78
2024/01/03 03:01:12;;;;;;;8.88;0.65;;;;;;;;;;5136999;27;20047;-78
2024/01/03 03:03:39;;;;;;;10.25;1.23;;;;;;;;;;5136587;27;20111;-78
2024/01/03 03:06:05;;;;;;;11.88;1.17;;;;;;;;;;5136588;27;20047;-78
2024/01/03 03:08:31;;;;;;;10.75;1.17;;;;;;;;;;5118455;27;20364;-78
2024/01/03 03:10:57;;;;;;;12.68;1.17;;;;;;;;;;5136435;27;20145;-78
2024/01/03 03:13:24;;;;;;;14.68;1.60;;;;;;;;;;5136442;27;20043;-78
2024/01/03 03:15:50;;;;;;;13.13;1.20;;;;;;;;;;5135960;27;20095;-78
2024/01/03 03:18:16;;;;;;;16.35;1.88;;;;;;;;;;5136338;27;20129;-78
2024/01/03 03:20:42;;;;;;;19.65;2.92;;;;;;;;;;5118141;27;20090;-78
2024/01/03 03:23:08;;;;;;;28.85;3.05;;;;;;;;;;5136186;27;20047;-77
2024/01/03 03:25:34;;;;;;;15.27;1.70;;;;;;;;;;5136237;27;20156;-78
2024/01/03 03:28:02;;;;;;;17.45;1.92;;;;;;;;;;5135815;27;20486;-78
2024/01/03 03:30:28;;;;;;;18.40;1.45;;;;;;;;;;5136114;27;20073;-78
2024/01/03 03:32:54;;;;;;;14.38;2.15;;;;;;;;;;5136080;27;20039;-78
2024/01/03 03:35:20;;;;;;;14.23;1.70;;;;;;;;;;5135938;27;20043;-78
2024/01/03 03:37:46;;;;;;;10.85;1.10;;;;;;;;;;5117945;27;20051;-78
2024/01/03 03:40:12;;;;;;;12.07;1.02;;;;;;;;;;5117613;27;20126;-78
2024/01/03 03:42:38;;;;;;;13.88;1.70;;;;;;;;;;5136201;27;20138;-78
2024/01/03 03:45:04;;;;;;;9.93;1.33;;;;;;;;;;5135863;27;20055;-78
2024/01/03 03:47:30;;;;;;;13.05;1.83;;;;;;;;;;5116903;27;20122;-78
2024/01/03 03:49:57;;;;;;;15.90;1.48;;;;;;;;;;5135753;27;20047;-78
2024/01/03 03:52:23;;;;;;;12.55;1.35;;;;;;;;;;5135686;27;20095;-78
2024/01/03 03:54:49;;;;;;;14.30;1.77;;;;;;;;;;5135678;27;20043;-78
2024/01/03 03:57:15;;;;;;;13.52;1.52;;;;;;;;;;5135562;27;20047;-78
2024/01/03 03:59:41;;;;;;;11.15;1.70;;;;;;;;;;5135490;27;20043;-78
2024/01/03 04:02:07;;;;;;;14.63;1.75;;;;;;;;;;5135384;27;20088;-79
2024/01/03 04:04:33;;;;;;;21.98;2.58;;;;;;;;;;5117058;27;20086;-79
2024/01/03 04:06:59;;;;;;;14.68;1.55;;;;;;;;;;5117454;27;20051;-79
2024/01/03 04:09:26;;;;;;;14.02;2.13;;;;;;;;;;5100345;27;20051;-78
2024/01/03 04:11:52;;;;;;;18.52;1.88;;;;;;;;;;5135313;27;20039;-78
2024/01/03 04:14:18;;;;;;;11.55;1.35;;;;;;;;;;5117148;27;20475;-78
2024/01/03 04:16:44;;;;;;;15.88;1.83;;;;;;;;;;5135021;27;20096;-78
2024/01/03 04:19:10;;;;;;;11.05;1.80;;;;;;;;;;5116860;27;20073;-78
2024/01/03 04:21:36;;;;;;;12.45;1.15;;;;;;;;;;5116979;27;20039;-78
2024/01/03 04:24:03;;;;;;;15.60;2.05;;;;;;;;;;5135093;27;20106;-78
2024/01/03 04:26:29;;;;;;;12.23;1.27;;;;;;;;;;5135073;27;20043;-78
2024/01/03 04:28:55;;;;;;;21.88;1.85;;;;;;;;;;5135136;27;20046;-78
2024/01/03 04:31:21;;;;;;;15.82;1.90;;;;;;;;;;5135051;27;20441;-78
2024/01/03 04:33:47;;;;;;;15.07;2.25;;;;;;;;;;5116626;27;20050;-78
2024/01/03 04:36:13;;;;;;;12.82;1.65;;;;;;;;;;5116861;27;20043;-78
2024/01/03 04:38:39;;;;;;;23.23;3.20;;;;;;;;;;5134024;27;20537;-78
2024/01/03 04:41:05;;;;;;;13.68;1.88;;;;;;;;;;5134034;27;20043;-78
2024/01/03 04:43:31;;;;;;;21.02;1.98;;;;;;;;;;5134480;27;20054;-78
2024/01/03 04:45:57;;;;;;;16.20;2.08;;;;;;;;;;5116298;27;20053;-78
2024/01/03 04:48:23;;;;;;;14.27;2.28;;;;;;;;;;5134791;27;20058;-78
2024/01/03 04:50:49;;;;;;;14.02;1.58;;;;;;;;;;5135372;27;20082;-78
2024/01/03 04:53:15;;;;;;;11.50;2.13;;;;;;;;;;5117098;28;20054;-78
2024/01/03 04:55:42;;;;;;;16.25;2.10;;;;;;;;;;5135049;28;20080;-78
2024/01/03 04:58:08;;;;;;;19.38;3.05;;;;;;;;;;5134892;28;20114;-78
2024/01/03 05:00:36;;;;;;;19.92;1.83;;;;;;;;;;5116521;28;20130;-78
2024/01/03 05:03:02;;;;;;;17.13;1.88;;;;;;;;;;5134578;28;20046;-78
2024/01/03 05:05:28;;;;;;;21.13;2.58;;;;;;;;;;5134624;28;20054;-78
2024/01/03 05:07:56;;;;;;;20.35;2.50;;;;;;;;;;5116468;28;20041;-78
2024/01/03 05:10:22;;;;;;;14.35;1.70;;;;;;;;;;5116447;28;20055;-78
2024/01/03 05:12:48;;;;;;;13.90;1.55;;;;;;;;;;5134498;28;20463;-78
2024/01/03 05:15:14;;;;;;;17.67;2.22;;;;;;;;;;5136860;27;20402;-78
2024/01/03 05:17:41;;;;;;;12.90;2.25;;;;;;;;;;5120305;27;20119;-78
2024/01/03 05:20:08;;;;;;;15.38;2.63;;;;;;;;;;5138634;27;20475;-78
2024/01/03 05:22:34;;;;;;;14.77;1.98;;;;;;;;;;5138629;27;20043;-78
2024/01/03 05:25:01;;;;;;;17.95;2.60;;;;;;;;;;5138510;27;20532;-78
2024/01/03 05:27:27;;;;;;;14.00;1.88;;;;;;;;;;5138503;27;20479;-78
2024/01/03 05:29:53;;;;;;;19.58;2.67;;;;;;;;;;5120897;27;20100;-78
2024/01/03 05:32:19;;;;;;;21.02;2.70;;;;;;;;;;5138841;27;20043;-78
2024/01/03 05:34:45;;;;;;;11.73;2.20;;;;;;;;;;5119724;27;20047;-78
2024/01/03 05:37:11;;;;;;;20.83;2.70;;;;;;;;;;5137810;27;20471;-78
2024/01/03 05:39:37;;;;;;;17.30;2.28;;;;;;;;;;5138326;27;20046;-78
2024/01/03 05:42:04;;;;;;;27.00;2.58;;;;;;;;;;5119543;27;20047;-78
2024/01/03 05:44:30;;;;;;;17.70;2.08;;;;;;;;;;5119796;27;20062;-79
2024/01/03 05:46:56;;;;;;;21.77;3.13;;;;;;;;;;5137774;27;20129;-79
2024/01/03 05:49:22;;;;;;;29.05;3.88;;;;;;;;;;5138300;27;20039;-78
2024/01/03 05:51:48;;;;;;;25.65;2.70;;;;;;;;;;5137917;27;20177;-78
2024/01/03 05:54:14;;;;;;;20.25;3.10;;;;;;;;;;5137992;27;20100;-78
2024/01/03 05:56:40;;;;;;;19.05;1.45;;;;;;;;;;5119682;27;20120;-78
2024/01/03 05:59:06;;;;;;;20.63;2.05;;;;;;;;;;5137770;27;20187;-78
2024/01/03 06:01:32;;;;;;;14.75;1.83;;;;;;;;;;5137618;27;20472;-79
2024/01/03 06:03:58;;;;;;;15.02;2.17;;;;;;;;;;5137458;27;20499;-79
2024/01/03 06:06:24;;;;;;;19.38;1.83;;;;;;;;;;5119555;27;20546;-79
2024/01/03 06:08:51;;;;;;;23.77;2.42;;;;;;;;;;5137400;27;20505;-79
2024/01/03 06:11:17;;;;;;;19.17;1.77;;;;;;;;;;5137725;27;20043;-79
2024/01/03 06:13:43;;;;;;;18.25;2.72;;;;;;;;;;5137806;27;20039;-79
2024/01/03 06:16:10;;;;;;;20.45;2.65;;;;;;;;;;5137153;27;20047;-79
2024/01/03 06:18:36;;;;;;;15.68;2.08;;;;;;;;;;5106807;27;20047;-79
2024/01/03 06:21:02;;;;;;;15.13;2.03;;;;;;;;;;5158237;27;20047;-79
2024/01/03 06:23:29;;;;;;;17.08;1.92;;;;;;;;;;5140539;27;20454;-79
2024/01/03 06:25:55;;;;;;;14.10;1.85;;;;;;;;;;5139130;27;20039;-79
2024/01/03 06:28:21;;;;;;;18.58;2.05;;;;;;;;;;5122489;27;20065;-79
2024/01/03 06:30:47;;;;;;;14.90;1.98;;;;;;;;;;5158109;27;20039;-79
2024/01/03 06:33:13;;;;;;;16.95;1.48;;;;;;;;;;5139710;27;20057;-79
2024/01/03 06:35:39;;;;;;;15.77;1.83;;;;;;;;;;5139753;27;20043;-79
2024/01/03 06:38:05;;;;;;;18.17;2.22;;;;;;;;;;5139750;27;20046;-78
2024/01/03 06:40:32;;;;;;;14.75;2.17;;;;;;;;;;5157880;27;20050;-79
2024/01/03 06:42:58;;;;;;;17.63;2.00;;;;;;;;;;5157818;27;20046;-79
2024/01/03 06:45:25;;;;;;;19.55;2.97;;;;;;;;;;5157486;27;20558;-79
2024/01/03 06:47:51;;;;;;;14.65;2.28;;;;;;;;;;5157001;27;20481;-79
2024/01/03 06:50:17;;;;;;;20.42;2.60;;;;;;;;;;5157683;27;20461;-78
2024/01/03 06:52:43;;;;;;;17.33;2.08;;;;;;;;;;5157655;27;20065;-78
2024/01/03 06:55:09;;;;;;;20.50;2.33;;;;;;;;;;5157606;27;20133;-78
2024/01/03 06:57:36;;;;;;;17.15;2.20;;;;;;;;;;5157559;27;20039;-78
2024/01/03 07:00:02;;;;;;;15.25;2.22;;;;;;;;;;5139268;27;20058;-78
2024/01/03 07:02:28;;;;;;;17.98;2.55;;;;;;;;;;5139089;27;20046;-78
2024/01/03 07:04:54;;;;;;;20.60;2.70;;;;;;;;;;5157384;27;20088;-78
2024/01/03 07:07:20;;;;;;;18.23;2.17;;;;;;;;;;5139131;27;20097;-77
2024/01/03 07:09:46;;;;;;;12.98;2.25;;;;;;;;;;5157239;27;20095;-77
2024/01/03 07:12:12;;;;;;;21.88;3.22;;;;;;;;;;5139045;27;20545;-77
2024/01/03 07:14:38;;;;;;;16.40;2.33;;;;;;;;;;5157258;27;20042;-77
2024/01/03 07:17:04;;;;;;;16.60;2.53;;;;;;;;;;5156599;27;20050;-77
2024/01/03 07:19:30;;;;;;;19.13;2.85;;;;;;;;;;5157098;27;20038;-77
2024/01/03 07:21:56;;;;;;;18.15;2.60;;;;;;;;;;5156927;27;20049;-77
2024/01/03 07:24:23;;;;;;;19.42;2.53;;;;;;;;;;5157010;27;20039;-77
2024/01/03 07:26:49;;;;;;;22.08;2.72;;;;;;;;;;5156957;27;20054;-77
2024/01/03 07:29:15;;;;;;;23.48;2.35;;;;;;;;;;5156910;27;20081;-77
2024/01/03 07:31:41;;;;;;;20.92;3.03;;;;;;;;;;5156909;27;20047;-77
2024/01/03 07:34:07;;;;;;;24.92;3.45;;;;;;;;;;5156828;27;20174;-77
2024/01/03 07:36:33;;;;;;;17.25;2.58;;;;;;;;;;5156735;27;20125;-77
2024/01/03 07:39:00;;;;;;;19.92;2.30;;;;;;;;;;5138159;27;20050;-77
2024/01/03 07:41:26;;;;;;;21.30;2.35;;;;;;;;;;5156493;27;20478;-77
2024/01/03 07:43:52;;;;;;;22.30;2.88;;;;;;;;;;5138067;27;20042;-77
2024/01/03 07:46:19;;;;;;;21.85;2.95;;;;;;;;;;5138127;27;20051;-77
2024/01/03 07:48:45;;;;;;;20.85;2.75;;;;;;;;;;5138492;27;20042;-77
2024/01/03 07:51:11;;;;;;;17.42;2.40;;;;;;;;;;5156477;27;20081;-78
2024/01/03 07:53:37;;;;;;;28.80;3.22;;;;;;;;;;5156541;27;20083;-77
2024/01/03 07:56:04;;;;;;;23.02;3.10;;;;;;;;;;5156640;27;20042;-77
2024/01/03 07:58:30;;;;;;;18.63;2.85;;;;;;;;;;5156406;27;20129;-78
2024/01/03 08:00:56;;;;;;;22.00;2.55;;;;;;;;;;5156902;27;20075;-77
2024/01/03 08:03:22;;;;;;;22.95;2.47;;;;;;;;;;5156161;27;20042;-78
2024/01/03 08:05:48;;;;;;;21.27;3.42;;;;;;;;;;5156159;27;20047;-77
2024/01/03 08:08:14;;;;;;;25.25;3.45;;;;;;;;;;5137928;27;20058;-78
2024/01/03 08:10:40;;;;;;;22.35;2.60;;;;;;;;;;5156107;27;20046;-77
2024/01/03 08:13:06;;;;;;;23.42;3.25;;;;;;;;;;5156162;27;20091;-77
2024/01/03 08:15:34;;;;;;;23.27;3.50;;;;;;;;;;5155732;27;20473;-77
2024/01/03 08:18:00;;;;;;;16.23;2.75;;;;;;;;;;5120721;27;20042;-77
2024/01/03 08:20:26;;;;;;;20.67;2.83;;;;;;;;;;5137908;27;20046;-77
2024/01/03 08:22:52;;;;;;;27.58;3.78;;;;;;;;;;5155841;27;20043;-77
2024/01/03 08:25:18;;;;;;;19.92;3.05;;;;;;;;;;5156119;27;20385;-77
2024/01/03 08:27:44;;;;;;;23.75;3.17;;;;;;;;;;5155806;27;20058;-77
2024/01/03 08:30:10;;;;;;;30.17;4.00;;;;;;;;;;5155800;27;20099;-77
2024/01/03 08:32:37;;;;;;;25.95;4.20;;;;;;;;;;5156144;27;20061;-77
2024/01/03 08:35:04;;;;;;;23.02;3.42;;;;;;;;;;5129328;27;20047;-77
2024/01/03 08:37:30;;;;;;;26.15;3.92;;;;;;;;;;5115292;27;20123;-78
2024/01/03 08:39:57;;;;;;;27.77;3.92;;;;;;;;;;5127612;27;20047;-78
2024/01/03 08:42:26;;;;;;;31.10;3.95;;;;;;;;;;5113651;27;20204;-78
2024/01/03 08:44:52;;;;;;;21.08;3.80;;;;;;;;;;5115286;27;20129;-78
2024/01/03 08:47:18;;;;;;;22.10;2.72;;;;;;;;;;5132326;27;20093;-78
2024/01/03 08:49:45;;;;;;;26.25;2.60;;;;;;;;;;5131606;27;20043;-78
2024/01/03 08:52:12;;;;;;;18.02;1.92;;;;;;;;;;5113603;27;20073;-77
2024/01/03 08:54:38;;;;;;;27.10;3.28;;;;;;;;;;5130667;27;20376;-78
2024/01/03 08:57:04;;;;;;;22.50;3.00;;;;;;;;;;5110980;28;20050;-78
2024/01/03 08:59:30;;;;;;;20.83;3.25;;;;;;;;;;5132030;28;20485;-79
2024/01/03 09:01:56;;;;;;;20.30;3.35;;;;;;;;;;5114990;28;20165;-79
2024/01/03 09:04:23;;;;;;;21.65;3.15;;;;;;;;;;5113831;28;20476;-78
2024/01/03 09:06:52;;;;;;;17.75;2.78;;;;;;;;;;5114796;28;20435;-78
2024/01/03 09:09:18;;;;;;;16.42;2.20;;;;;;;;;;5116874;28;20061;-78
2024/01/03 09:11:44;;;;;;;16.17;2.25;;;;;;;;;;5134516;28;20047;-79
2024/01/03 09:14:12;;;;;;;16.23;2.30;;;;;;;;;;5134530;28;20047;-79
2024/01/03 09:16:39;;;;;;;17.23;2.25;;;;;;;;;;5134076;28;20146;-78
2024/01/03 09:19:05;;;;;;;21.38;2.30;;;;;;;;;;5116234;28;20054;-78
2024/01/03 09:21:32;;;;;;;14.48;2.22;;;;;;;;;;5116407;28;20479;-78
2024/01/03 09:23:58;;;;;;;19.48;2.65;;;;;;;;;;5134420;28;20035;-78
2024/01/03 09:26:24;;;;;;;15.98;2.17;;;;;;;;;;5134398;28;20047;-78
2024/01/03 09:28:51;;;;;;;12.55;1.98;;;;;;;;;;5134363;28;20043;-78
2024/01/03 09:31:17;;;;;;;10.77;1.92;;;;;;;;;;5134363;28;20054;-78
2024/01/03 09:33:44;;;;;;;17.00;2.33;;;;;;;;;;5116218;28;20043;-78
2024/01/03 09:36:17;;;;;;;13.23;1.92;;;;;;;;;;5134288;28;20055;-78
2024/01/03 09:38:43;;;;;;;17.00;1.88;;;;;;;;;;5134278;28;20125;-78
2024/01/03 09:41:12;;;;;;;19.23;2.13;;;;;;;;;;5115954;28;20051;-78
2024/01/03 09:43:42;;;;;;;13.35;2.47;;;;;;;;;;5115845;28;20047;-78
2024/01/03 09:46:10;;;;;;;13.15;1.80;;;;;;;;;;5116475;28;20090;-79
2024/01/03 09:48:39;;;;;;;14.70;1.80;;;;;;;;;;5098829;28;20051;-78
2024/01/03 09:51:07;;;;;;;16.50;1.50;;;;;;;;;;5134193;28;20049;-78
2024/01/03 09:53:34;;;;;;;16.92;2.47;;;;;;;;;;5134216;28;20047;-78
2024/01/03 09:56:00;;;;;;;19.48;2.10;;;;;;;;;;5134113;28;20098;-78
2024/01/03 09:58:27;;;;;;;15.85;2.05;;;;;;;;;;5134355;28;20055;-78
2024/01/03 10:00:53;;;;;;;16.67;2.05;;;;;;;;;;5134155;27;20092;-78
2024/01/03 10:03:19;;;;;;;22.42;2.78;;;;;;;;;;5137886;27;20047;-78
2024/01/03 10:05:46;;;;;;;22.58;2.88;;;;;;;;;;5137802;27;20049;-77
2024/01/03 10:08:16;;;;;;;14.63;2.63;;;;;;;;;;5119689;27;20054;-77
2024/01/03 10:10:45;;;;;;;23.02;3.60;;;;;;;;;;5137739;27;20051;-77
2024/01/03 10:13:20;;;;;;;19.65;3.03;;;;;;;;;;5137622;27;20043;-77
2024/01/03 10:15:47;;;;;;;19.70;2.35;;;;;;;;;;5137228;27;20513;-77
2024/01/03 10:18:19;;;;;;;20.55;3.00;;;;;;;;;;5137637;27;20050;-78
2024/01/03 10:20:45;;;;;;;23.92;2.72;;;;;;;;;;5119231;27;20046;-77
2024/01/03 10:23:13;;;;;;;21.58;3.13;;;;;;;;;;5137370;27;20035;-78
2024/01/03 10:25:45;;;;;;;22.75;3.05;;;;;;;;;;5137428;27;20051;-77
2024/01/03 10:28:20;;;;;;;22.98;3.58;;;;;;;;;;5137372;27;20046;-77
2024/01/03 10:30:46;;;;;;;;;;;;;;;;;;5137918;27;20054;-78
2024/01/03 10:33:14;;;;;;;25.50;3.47;;;;;;;;;;5137313;27;19920;-78
2024/01/03 10:35:43;;;;;;;23.45;4.18;;;;;;;;;;5137292;27;20051;-77
2024/01/03 10:38:10;;;;;;;21.67;3.10;;;;;;;;;;5137198;27;20051;-77
2024/01/03 10:40:42;;;;;;;23.88;3.10;;;;;;;;;;5137125;27;20078;-78
2024/01/03 10:43:09;;;;;;;22.33;3.35;;;;;;;;;;5137161;27;20051;-78
2024/01/03 10:45:35;;;;;;;21.75;2.78;;;;;;;;;;5137072;27;20139;-78
2024/01/03 10:48:01;;;;;;;25.77;2.83;;;;;;;;;;5101560;27;20047;-78
2024/01/03 10:50:28;;;;;;;21.65;4.05;;;;;;;;;;5118827;27;20087;-78
2024/01/03 10:52:58;;;;;;;25.48;3.17;;;;;;;;;;5137354;27;20086;-78
2024/01/03 10:55:42;;;;;;;20.13;3.50;;;;;;;;;;5118727;27;20043;-78
2024/01/03 10:58:13;;;;;;;30.25;3.53;;;;;;;;;;5136970;27;20050;-78
2024/01/03 11:00:51;;;;;;;20.45;2.85;;;;;;;;;;5136811;27;20047;-78
2024/01/03 11:03:23;;;;;;;12.45;1.77;;;;;;;;;;5118394;27;20128;-78
2024/01/03 11:06:01;;;;;;;11.15;2.25;;;;;;;;;;5136903;27;20054;-78
2024/01/03 11:08:31;;;;;;;13.07;2.00;;;;;;;;;;5136936;27;20047;-78
2024/01/03 11:10:59;;;;;;;9.68;1.45;;;;;;;;;;5136628;27;20051;-78
2024/01/03 11:13:29;;;;;;;9.30;0.90;;;;;;;;;;5136481;27;20050;-78
2024/01/03 11:15:55;;;;;;;8.07;1.10;;;;;;;;;;5136298;27;20046;-78
2024/01/03 11:18:40;;;;;;;7.65;1.20;;;;;;;;;;5118382;27;20043;-79
2024/01/03 11:21:26;;;;;;;11.82;1.15;;;;;;;;;;5136450;27;20089;-79
2024/01/03 11:23:53;;;;;;;10.77;1.02;;;;;;;;;;5136239;27;20087;-79
2024/01/03 11:26:19;;;;;;;8.07;1.00;;;;;;;;;;5128359;27;20043;-78
2024/01/03 11:28:51;;;;;;;9.98;1.05;;;;;;;;;;5097705;28;20054;-78
2024/01/03 11:31:36;;;;;;;7.63;0.63;;;;;;;;;;5115755;28;20070;-77
2024/01/03 11:34:04;;;;;;;7.88;0.80;;;;;;;;;;5115590;28;20044;-77
2024/01/03 11:36:47;;;;;;;7.93;0.65;;;;;;;;;;5097639;28;20051;-78
2024/01/03 11:39:33;;;;;;;5.18;0.70;;;;;;;;;;5115135;28;20103;-84
2024/01/03 11:41:59;;;;;;;;;;;;;;;;;;5080894;28;20063;-79
2024/01/03 11:44:25;;;;;;;7.05;0.47;;;;;;;;;;5115320;28;19927;-78
2024/01/03 11:47:00;;;;;;;6.07;0.50;;;;;;;;;;5097014;28;20054;-79
2024/01/03 11:49:26;;;;;;;5.50;0.50;;;;;;;;;;5115242;28;20044;-79
2024/01/03 11:51:53;;;;;;;7.90;0.50;;;;;;;;;;5115163;28;20039;-79
2024/01/03 11:54:19;;;;;;;5.70;0.47;;;;;;;;;;5115252;28;20072;-79
2024/01/03 11:56:45;;;;;;;6.32;0.50;;;;;;;;;;5115180;28;20052;-78
2024/01/03 11:59:11;;;;;;;6.13;0.50;;;;;;;;;;5097422;28;20418;-78
2024/01/03 12:01:37;;;;;;;5.18;0.55;;;;;;;;;;5097529;28;20130;-79
2024/01/03 12:04:10;;;;;;;7.72;0.70;;;;;;;;;;5114777;28;20115;-79
2024/01/03 12:06:37;;;;;;;5.65;0.50;;;;;;;;;;5114957;28;20460;-79
2024/01/03 12:09:04;;;;;;;8.60;0.90;;;;;;;;;;5115405;28;20051;-80
2024/01/03 12:11:30;;;;;;;8.70;0.90;;;;;;;;;;5097219;28;20483;-78
2024/01/03 12:13:56;;;;;;;9.95;0.93;;;;;;;;;;5114783;28;20043;-78
2024/01/03 12:16:23;;;;;;;5.57;0.70;;;;;;;;;;5114346;28;20372;-79
2024/01/03 12:18:49;;;;;;;4.75;0.55;;;;;;;;;;5080069;28;20047;-79
2024/01/03 12:21:15;;;;;;;7.70;0.70;;;;;;;;;;5114681;28;20134;-80
2024/01/03 12:23:54;;;;;;;7.38;0.60;;;;;;;;;;5113666;28;20036;-79
2024/01/03 12:26:21;;;;;;;8.23;0.90;;;;;;;;;;5114428;28;20054;-79
2024/01/03 12:28:49;;;;;;;5.47;0.45;;;;;;;;;;5114797;28;20135;-79
2024/01/03 12:31:18;;;;;;;9.57;0.85;;;;;;;;;;5079749;28;20100;-81
2024/01/03 12:33:45;;;;;;;8.82;0.50;;;;;;;;;;5096452;28;20040;-79
2024/01/03 12:36:11;;;;;;;11.07;1.15;;;;;;;;;;5114418;28;20048;-79
2024/01/03 12:38:37;;;;;;;7.55;0.55;;;;;;;;;;5096848;28;20039;-79
2024/01/03 12:41:03;;;;;;;11.32;0.75;;;;;;;;;;5114372;28;20411;-79
2024/01/03 12:43:29;;;;;;;6.40;0.50;;;;;;;;;;5100117;27;20202;-79
2024/01/03 12:45:57;;;;;;;9.82;0.77;;;;;;;;;;5116448;27;20178;-78
2024/01/03 12:48:23;;;;;;;8.07;0.93;;;;;;;;;;5116702;27;20134;-81
2024/01/03 12:50:49;;;;;;;11.02;0.95;;;;;;;;;;5116957;27;20047;-80
2024/01/03 12:53:15;;;;;;;7.32;0.70;;;;;;;;;;5116314;27;20047;-81
2024/01/03 12:55:41;;;;;;;9.07;0.63;;;;;;;;;;5116537;28;20043;-80
2024/01/03 12:58:07;;;;;;;7.68;0.50;;;;;;;;;;5116614;28;20483;-79
2024/01/03 13:00:33;;;;;;;6.57;0.95;;;;;;;;;;5116560;28;20043;-79
2024/01/03 13:02:59;;;;;;;5.63;0.40;;;;;;;;;;5116375;28;20051;-79
2024/01/03 13:05:26;;;;;;;9.07;0.55;;;;;;;;;;5134654;28;20079;-80
2024/01/03 13:07:52;;;;;;;7.72;0.60;;;;;;;;;;5116545;28;20051;-80
2024/01/03 13:10:18;;;;;;;7.45;0.60;;;;;;;;;;5116954;28;20043;-80
2024/01/03 13:12:44;;;;;;;5.95;0.43;;;;;;;;;;5134542;28;20126;-80
2024/01/03 13:15:10;;;;;;;6.05;0.45;;;;;;;;;;5134756;28;20047;-81
2024/01/03 13:17:36;;;;;;;7.97;0.90;;;;;;;;;;5115946;28;20134;-81
2024/01/03 13:20:02;;;;;;;6.22;0.50;;;;;;;;;;5135104;28;20043;-80
2024/01/03 13:22:28;;;;;;;7.72;0.52;;;;;;;;;;5134094;28;20489;-81
2024/01/03 13:24:54;;;;;;;8.18;1.02;;;;;;;;;;5116929;28;20066;-81
2024/01/03 13:27:20;;;;;;;8.50;0.98;;;;;;;;;;5134537;28;20047;-80
2024/01/03 13:29:47;;;;;;;8.82;0.70;;;;;;;;;;5116134;28;20058;-80
2024/01/03 13:32:13;;;;;;;8.68;1.00;;;;;;;;;;5116327;28;20057;-80
2024/01/03 13:34:39;;;;;;;7.88;0.75;;;;;;;;;;5116237;28;20047;-80
2024/01/03 13:37:06;;;;;;;7.90;0.65;;;;;;;;;;5138097;27;20051;-80
2024/01/03 13:39:32;;;;;;;12.70;0.90;;;;;;;;;;5103362;27;20058;-81
2024/01/03 13:41:58;;;;;;;7.30;0.68;;;;;;;;;;5108682;28;20085;-80
2024/01/03 13:44:24;;;;;;;8.50;1.20;;;;;;;;;;5099909;28;20091;-81
2024/01/03 13:46:53;;;;;;;11.27;0.88;;;;;;;;;;5099208;28;20514;-81
2024/01/03 13:49:20;;;;;;;13.30;1.20;;;;;;;;;;5099665;28;20514;-81
2024/01/03 13:51:46;;;;;;;9.00;1.05;;;;;;;;;;5104306;27;20078;-81
2024/01/03 13:54:12;;;;;;;12.25;0.80;;;;;;;;;;5110775;27;20042;-81
2024/01/03 13:56:38;;;;;;;13.50;1.40;;;;;;;;;;5119909;27;20467;-81
2024/01/03 13:59:05;;;;;;;17.02;1.23;;;;;;;;;;5119977;27;20467;-82
2024/01/03 14:01:31;;;;;;;13.98;0.90;;;;;;;;;;5102979;27;20051;-81
2024/01/03 14:03:57;;;;;;;14.82;1.60;;;;;;;;;;5119696;27;20081;-82
2024/01/03 14:06:23;;;;;;;11.63;1.15;;;;;;;;;;5120002;27;20054;-81
2024/01/03 14:08:51;;;;;;;12.45;0.95;;;;;;;;;;5119753;27;20043;-82
2024/01/03 14:11:21;;;;;;;8.25;0.80;;;;;;;;;;5103044;27;20043;-81
2024/01/03 14:13:47;;;;;;;12.20;1.23;;;;;;;;;;5119411;27;20047;-81
2024/01/03 14:16:13;;;;;;;9.43;1.00;;;;;;;;;;5119146;27;20130;-81
2024/01/03 14:18:39;;;;;;;15.52;1.17;;;;;;;;;;5137676;27;20111;-81
2024/01/03 14:21:07;;;;;;;14.05;1.45;;;;;;;;;;5137511;27;20043;-81
2024/01/03 14:23:35;;;;;;;14.23;1.00;;;;;;;;;;5123251;27;20042;-81
2024/01/03 14:26:02;;;;;;;16.10;1.30;;;;;;;;;;5120291;27;20128;-81
2024/01/03 14:28:30;;;;;;;19.52;1.33;;;;;;;;;;5085727;27;20042;-81
2024/01/03 14:30:56;;;;;;;10.68;1.45;;;;;;;;;;5119515;27;20082;-82
2024/01/03 14:33:22;;;;;;;16.58;1.88;;;;;;;;;;5149474;27;20074;-81
2024/01/03 14:35:48;;;;;;;14.57;1.55;;;;;;;;;;5119743;27;20494;-82